sensor_id;sensor_type;location;lat;lon;timestamp;pressure;altitude;pressure_sealevel;temperature;humidity
11038;BME280;5572;49.540;11.932;2023-02-16T00:00:53;97452.56;;;-0.72;100.00
11038;BME280;5572;49.540;11.932;2023-02-16T00:03:21;97459.75;;;-0.66;100.00
11038;BME280;5572;49.540;11.932;2023-02-16T00:05:49;97451.91;;;-0.87;100.00
11038;BME280;5572;49.540;11.932;2023-02-16T00:19:15;97432.66;;;-0.95;100.00
11038;BME280;5572;49.540;11.932;2023-02-16T00:21:43;97435.22;;;-0.75;100.00
11038;BME280;5572;49.540;11.932;2023-02-16T00:24:11;97429.00;;;-0.94;100.00
11038;BME280;5572;49.540;11.932;2023-02-16T00:26:39;97421.53;;;-0.78;100.00
11038;BME280;5572;49.540;11.932;2023-02-16T00:29:11;97425.78;;;-0.84;100.00
11038;BME280;5572;49.540;11.932;2023-02-16T00:31:40;97429.88;;;-0.81;100.00
11038;BME280;5572;49.540;11.932;2023-02-16T00:34:28;97423.09;;;-0.90;100.00
11038;BME280;5572;49.540;11.932;2023-02-16T00:36:57;97421.16;;;-1.09;100.00
11038;BME280;5572;49.540;11.932;2023-02-16T00:39:26;97420.34;;;-1.09;100.00
11038;BME280;5572;49.540;11.932;2023-02-16T00:41:56;97440.28;;;-0.80;100.00
11038;BME280;5572;49.540;11.932;2023-02-16T00:44:30;97439.13;;;-0.71;100.00
11038;BME280;5572;49.540;11.932;2023-02-16T00:47:00;97433.94;;;-0.85;100.00
11038;BME280;5572;49.540;11.932;2023-02-16T00:49:30;97450.28;;;-0.82;100.00
11038;BME280;5572;49.540;11.932;2023-02-16T00:51:58;97428.19;;;-0.88;100.00
11038;BME280;5572;49.540;11.932;2023-02-16T00:54:26;97459.56;;;-0.58;100.00
11038;BME280;5572;49.540;11.932;2023-02-16T02:44:46;97434.06;;;-0.53;100.00
11038;BME280;5572;49.540;11.932;2023-02-16T02:47:15;97452.09;;;-0.42;100.00
11038;BME280;5572;49.540;11.932;2023-02-16T03:03:19;97425.66;;;-0.63;100.00
11038;BME280;5572;49.540;11.932;2023-02-16T03:05:52;97435.66;;;-0.65;100.00
11038;BME280;5572;49.540;11.932;2023-02-16T03:08:24;97442.81;;;-0.59;100.00
11038;BME280;5572;49.540;11.932;2023-02-16T03:10:57;97447.94;;;-0.57;100.00
11038;BME280;5572;49.540;11.932;2023-02-16T03:13:57;97435.69;;;-0.58;100.00
11038;BME280;5572;49.540;11.932;2023-02-16T03:16:28;97436.31;;;-0.56;100.00
11038;BME280;5572;49.540;11.932;2023-02-16T03:18:59;97440.59;;;-0.55;100.00
11038;BME280;5572;49.540;11.932;2023-02-16T03:21:44;97447.53;;;-0.54;100.00
11038;BME280;5572;49.540;11.932;2023-02-16T03:24:30;97435.47;;;-0.57;100.00
11038;BME280;5572;49.540;11.932;2023-02-16T03:27:18;97427.50;;;-0.63;100.00
11038;BME280;5572;49.540;11.932;2023-02-16T03:30:05;97449.19;;;-0.47;100.00
11038;BME280;5572;49.540;11.932;2023-02-16T03:32:33;97431.41;;;-0.53;100.00
11038;BME280;5572;49.540;11.932;2023-02-16T03:35:01;97427.75;;;-0.52;100.00
11038;BME280;5572;49.540;11.932;2023-02-16T03:37:28;97429.81;;;-0.47;100.00
11038;BME280;5572;49.540;11.932;2023-02-16T03:39:55;97423.63;;;-0.54;100.00
11038;BME280;5572;49.540;11.932;2023-02-16T03:42:39;97416.13;;;-0.51;100.00
11038;BME280;5572;49.540;11.932;2023-02-16T03:45:07;97387.63;;;-0.83;100.00
11038;BME280;5572;49.540;11.932;2023-02-16T03:47:33;97391.72;;;-0.80;100.00
11038;BME280;5572;49.540;11.932;2023-02-16T03:50:01;97406.22;;;-0.70;100.00
11038;BME280;5572;49.540;11.932;2023-02-16T03:52:28;97397.66;;;-0.72;100.00
11038;BME280;5572;49.540;11.932;2023-02-16T03:54:54;97392.72;;;-0.81;100.00
11038;BME280;5572;49.540;11.932;2023-02-16T03:57:21;97393.91;;;-0.90;100.00
11038;BME280;5572;49.540;11.932;2023-02-16T03:59:47;97404.09;;;-0.93;100.00
11038;BME280;5572;49.540;11.932;2023-02-16T04:02:15;97402.47;;;-0.94;100.00
11038;BME280;5572;49.540;11.932;2023-02-16T04:04:41;97431.69;;;-0.88;100.00
11038;BME280;5572;49.540;11.932;2023-02-16T04:07:09;97442.31;;;-0.88;100.00
11038;BME280;5572;49.540;11.932;2023-02-16T04:09:35;97440.66;;;-0.89;100.00
11038;BME280;5572;49.540;11.932;2023-02-16T04:12:02;97448.63;;;-0.89;100.00
11038;BME280;5572;49.540;11.932;2023-02-16T04:14:47;97445.13;;;-0.96;100.00
11038;BME280;5572;49.540;11.932;2023-02-16T04:17:14;97460.44;;;-0.91;100.00
11038;BME280;5572;49.540;11.932;2023-02-16T04:19:41;97468.41;;;-0.91;100.00
11038;BME280;5572;49.540;11.932;2023-02-16T04:22:09;97475.59;;;-0.79;100.00
11038;BME280;5572;49.540;11.932;2023-02-16T04:24:35;97469.66;;;-0.81;100.00
11038;BME280;5572;49.540;11.932;2023-02-16T04:27:02;97478.00;;;-0.84;100.00
11038;BME280;5572;49.540;11.932;2023-02-16T04:29:29;97433.41;;;-1.08;100.00
11038;BME280;5572;49.540;11.932;2023-02-16T04:31:55;97461.09;;;-0.83;100.00
11038;BME280;5572;49.540;11.932;2023-02-16T04:34:22;97469.97;;;-0.63;100.00
11038;BME280;5572;49.540;11.932;2023-02-16T04:36:49;97454.59;;;-0.74;100.00
11038;BME280;5572;49.540;11.932;2023-02-16T04:39:17;97448.25;;;-0.80;100.00
11038;BME280;5572;49.540;11.932;2023-02-16T04:41:44;97461.75;;;-0.75;100.00
11038;BME280;5572;49.540;11.932;2023-02-16T04:44:11;97463.00;;;-0.71;100.00
11038;BME280;5572;49.540;11.932;2023-02-16T04:46:37;97448.88;;;-0.78;100.00
11038;BME280;5572;49.540;11.932;2023-02-16T04:49:04;97431.41;;;-1.06;100.00
11038;BME280;5572;49.540;11.932;2023-02-16T04:51:30;97451.91;;;-0.87;100.00
11038;BME280;5572;49.540;11.932;2023-02-16T04:53:57;97452.81;;;-0.67;100.00
11038;BME280;5572;49.540;11.932;2023-02-16T04:56:25;97451.41;;;-0.57;100.00
11038;BME280;5572;49.540;11.932;2023-02-16T04:58:52;97446.50;;;-0.66;100.00
11038;BME280;5572;49.540;11.932;2023-02-16T05:01:20;97438.28;;;-0.71;100.00
11038;BME280;5572;49.540;11.932;2023-02-16T05:03:47;97462.47;;;-0.47;100.00
11038;BME280;5572;49.540;11.932;2023-02-16T05:06:14;97438.25;;;-0.78;100.00
11038;BME280;5572;49.540;11.932;2023-02-16T05:08:41;97473.47;;;-0.56;100.00
11038;BME280;5572;49.540;11.932;2023-02-16T05:11:07;97469.56;;;-0.60;100.00
11038;BME280;5572;49.540;11.932;2023-02-16T05:13:54;97465.31;;;-0.55;100.00
11038;BME280;5572;49.540;11.932;2023-02-16T05:16:38;97466.75;;;-0.52;100.00
11038;BME280;5572;49.540;11.932;2023-02-16T05:19:05;97458.53;;;-0.64;100.00
11038;BME280;5572;49.540;11.932;2023-02-16T05:21:31;97461.81;;;-0.62;100.00
11038;BME280;5572;49.540;11.932;2023-02-16T05:24:01;97461.53;;;-0.73;100.00
11038;BME280;5572;49.540;11.932;2023-02-16T05:26:28;97480.78;;;-0.65;100.00
11038;BME280;5572;49.540;11.932;2023-02-16T05:28:56;97481.59;;;-0.64;100.00
11038;BME280;5572;49.540;11.932;2023-02-16T05:31:24;97445.28;;;-0.97;100.00
11038;BME280;5572;49.540;11.932;2023-02-16T05:33:50;97455.41;;;-1.14;100.00
11038;BME280;5572;49.540;11.932;2023-02-16T05:36:18;97504.97;;;-0.87;100.00
11038;BME280;5572;49.540;11.932;2023-02-16T05:38:44;97496.72;;;-0.98;100.00
11038;BME280;5572;49.540;11.932;2023-02-16T05:41:11;97528.47;;;-0.78;100.00
11038;BME280;5572;49.540;11.932;2023-02-16T05:43:48;97517.69;;;-0.76;100.00
11038;BME280;5572;49.540;11.932;2023-02-16T05:46:15;97523.00;;;-0.70;100.00
11038;BME280;5572;49.540;11.932;2023-02-16T05:48:42;97522.88;;;-0.62;100.00
11038;BME280;5572;49.540;11.932;2023-02-16T05:51:09;97510.53;;;-0.76;100.00
11038;BME280;5572;49.540;11.932;2023-02-16T05:53:35;97519.53;;;-0.70;100.00
11038;BME280;5572;49.540;11.932;2023-02-16T05:56:02;97500.34;;;-1.06;100.00
11038;BME280;5572;49.540;11.932;2023-02-16T05:58:28;97528.25;;;-0.83;100.00
11038;BME280;5572;49.540;11.932;2023-02-16T06:00:55;97534.16;;;-0.87;100.00
11038;BME280;5572;49.540;11.932;2023-02-16T06:03:23;97552.66;;;-0.66;100.00
11038;BME280;5572;49.540;11.932;2023-02-16T06:05:51;97544.41;;;-0.78;100.00
11038;BME280;5572;49.540;11.932;2023-02-16T06:08:18;97550.41;;;-0.63;100.00
11038;BME280;5572;49.540;11.932;2023-02-16T06:10:44;97552.88;;;-0.61;100.00
11038;BME280;5572;49.540;11.932;2023-02-16T06:13:11;97550.59;;;-0.64;100.00
11038;BME280;5572;49.540;11.932;2023-02-16T06:15:37;97548.78;;;-0.64;100.00
11038;BME280;5572;49.540;11.932;2023-02-16T06:18:05;97545.81;;;-0.82;100.00
11038;BME280;5572;49.540;11.932;2023-02-16T06:20:33;97543.22;;;-0.75;100.00
11038;BME280;5572;49.540;11.932;2023-02-16T06:22:59;97553.66;;;-0.67;100.00
11038;BME280;5572;49.540;11.932;2023-02-16T06:25:26;97554.88;;;-0.63;100.00
11038;BME280;5572;49.540;11.932;2023-02-16T06:27:52;97541.03;;;-0.65;100.00
11038;BME280;5572;49.540;11.932;2023-02-16T06:30:21;97534.56;;;-0.84;100.00
11038;BME280;5572;49.540;11.932;2023-02-16T06:32:47;97563.06;;;-0.65;100.00
11038;BME280;5572;49.540;11.932;2023-02-16T06:35:14;97547.97;;;-0.58;100.00
11038;BME280;5572;49.540;11.932;2023-02-16T06:37:42;97536.91;;;-0.68;100.00
11038;BME280;5572;49.540;11.932;2023-02-16T06:40:10;97549.59;;;-0.63;100.00
11038;BME280;5572;49.540;11.932;2023-02-16T06:42:39;97546.78;;;-0.55;100.00
11038;BME280;5572;49.540;11.932;2023-02-16T06:45:06;97522.91;;;-0.89;100.00
11038;BME280;5572;49.540;11.932;2023-02-16T06:47:34;97538.81;;;-0.89;100.00
11038;BME280;5572;49.540;11.932;2023-02-16T06:50:02;97554.84;;;-0.70;100.00
11038;BME280;5572;49.540;11.932;2023-02-16T06:52:29;97568.88;;;-0.48;100.00
11038;BME280;5572;49.540;11.932;2023-02-16T06:54:57;97559.00;;;-0.61;100.00
11038;BME280;5572;49.540;11.932;2023-02-16T06:57:24;97578.94;;;-0.37;100.00
11038;BME280;5572;49.540;11.932;2023-02-16T06:59:50;97583.63;;;-0.39;100.00
11038;BME280;5572;49.540;11.932;2023-02-16T07:02:17;97549.94;;;-0.73;100.00
11038;BME280;5572;49.540;11.932;2023-02-16T07:04:44;97543.59;;;-0.78;100.00
11038;BME280;5572;49.540;11.932;2023-02-16T07:07:10;97590.88;;;-0.54;100.00
11038;BME280;5572;49.540;11.932;2023-02-16T07:09:37;97571.34;;;-0.74;100.00
11038;BME280;5572;49.540;11.932;2023-02-16T07:12:06;97582.28;;;-0.63;100.00
11038;BME280;5572;49.540;11.932;2023-02-16T07:14:32;97580.16;;;-0.74;100.00
11038;BME280;5572;49.540;11.932;2023-02-16T07:16:59;97592.63;;;-0.68;100.00
11038;BME280;5572;49.540;11.932;2023-02-16T07:19:28;97598.25;;;-0.50;100.00
11038;BME280;5572;49.540;11.932;2023-02-16T07:21:57;97574.63;;;-0.72;100.00
11038;BME280;5572;49.540;11.932;2023-02-16T07:24:23;97620.81;;;-0.39;100.00
11038;BME280;5572;49.540;11.932;2023-02-16T07:26:50;97600.88;;;-0.22;100.00
11038;BME280;5572;49.540;11.932;2023-02-16T07:29:18;97590.38;;;-0.37;100.00
11038;BME280;5572;49.540;11.932;2023-02-16T07:31:44;97608.19;;;-0.24;100.00
11038;BME280;5572;49.540;11.932;2023-02-16T07:34:11;97605.38;;;-0.23;100.00
11038;BME280;5572;49.540;11.932;2023-02-16T07:36:38;97588.22;;;-0.20;100.00
11038;BME280;5572;49.540;11.932;2023-02-16T07:39:04;97581.25;;;-0.21;100.00
11038;BME280;5572;49.540;11.932;2023-02-16T07:41:31;97598.31;;;-0.03;100.00
11038;BME280;5572;49.540;11.932;2023-02-16T07:43:57;97593.63;;;0.05;100.00
11038;BME280;5572;49.540;11.932;2023-02-16T07:46:25;97559.16;;;-0.28;100.00
11038;BME280;5572;49.540;11.932;2023-02-16T07:48:52;97575.59;;;-0.12;100.00
11038;BME280;5572;49.540;11.932;2023-02-16T07:51:22;97556.31;;;-0.27;100.00
11038;BME280;5572;49.540;11.932;2023-02-16T07:53:49;97587.91;;;0.08;100.00
11038;BME280;5572;49.540;11.932;2023-02-16T07:56:19;97585.53;;;0.20;100.00
11038;BME280;5572;49.540;11.932;2023-02-16T07:58:46;97581.22;;;0.25;100.00
11038;BME280;5572;49.540;11.932;2023-02-16T08:01:13;97566.94;;;0.33;100.00
11038;BME280;5572;49.540;11.932;2023-02-16T08:03:41;97526.19;;;0.06;100.00
11038;BME280;5572;49.540;11.932;2023-02-16T08:06:07;97520.03;;;-0.01;100.00
11038;BME280;5572;49.540;11.932;2023-02-16T08:08:35;97546.25;;;0.22;100.00
11038;BME280;5572;49.540;11.932;2023-02-16T08:11:08;97497.53;;;-0.04;100.00
11038;BME280;5572;49.540;11.932;2023-02-16T08:13:34;97484.25;;;-0.11;100.00
11038;BME280;5572;49.540;11.932;2023-02-16T08:16:01;97542.03;;;0.47;100.00
11038;BME280;5572;49.540;11.932;2023-02-16T08:18:28;97509.91;;;0.48;100.00
11038;BME280;5572;49.540;11.932;2023-02-16T08:20:56;97487.63;;;0.56;100.00
11038;BME280;5572;49.540;11.932;2023-02-16T08:23:23;97490.47;;;0.74;100.00
11038;BME280;5572;49.540;11.932;2023-02-16T08:25:49;97447.75;;;0.30;100.00
11038;BME280;5572;49.540;11.932;2023-02-16T08:28:16;97437.50;;;0.20;100.00
11038;BME280;5572;49.540;11.932;2023-02-16T08:30:43;97462.03;;;0.48;100.00
11038;BME280;5572;49.540;11.932;2023-02-16T08:33:10;97472.25;;;0.71;100.00
11038;BME280;5572;49.540;11.932;2023-02-16T08:35:37;97442.59;;;0.74;100.00
11038;BME280;5572;49.540;11.932;2023-02-16T08:38:04;97448.28;;;1.09;100.00
11038;BME280;5572;49.540;11.932;2023-02-16T08:40:33;97444.78;;;1.02;100.00
11038;BME280;5572;49.540;11.932;2023-02-16T08:42:59;97408.41;;;0.77;100.00
11038;BME280;5572;49.540;11.932;2023-02-16T08:45:26;97438.97;;;1.31;100.00
11038;BME280;5572;49.540;11.932;2023-02-16T08:47:53;97415.09;;;1.12;100.00
11038;BME280;5572;49.540;11.932;2023-02-16T08:50:20;97388.91;;;0.96;100.00
11038;BME280;5572;49.540;11.932;2023-02-16T08:52:46;97373.78;;;0.96;100.00
11038;BME280;5572;49.540;11.932;2023-02-16T08:55:14;97409.97;;;1.61;100.00
11038;BME280;5572;49.540;11.932;2023-02-16T08:57:41;97371.28;;;1.01;100.00
11038;BME280;5572;49.540;11.932;2023-02-16T09:00:08;97375.59;;;0.96;100.00
11038;BME280;5572;49.540;11.932;2023-02-16T09:02:52;97354.19;;;1.28;100.00
11038;BME280;5572;49.540;11.932;2023-02-16T09:05:19;97327.53;;;0.91;100.00
11038;BME280;5572;49.540;11.932;2023-02-16T09:07:45;97341.22;;;1.01;100.00
11038;BME280;5572;49.540;11.932;2023-02-16T09:10:20;97378.66;;;1.87;100.00
11038;BME280;5572;49.540;11.932;2023-02-16T09:12:49;97359.09;;;1.31;100.00
11038;BME280;5572;49.540;11.932;2023-02-16T09:15:18;97359.13;;;1.62;100.00
11038;BME280;5572;49.540;11.932;2023-02-16T09:17:54;97332.91;;;0.72;100.00
11038;BME280;5572;49.540;11.932;2023-02-16T09:20:24;97324.91;;;0.84;100.00
11038;BME280;5572;49.540;11.932;2023-02-16T09:23:00;97336.16;;;1.30;100.00
11038;BME280;5572;49.540;11.932;2023-02-16T09:25:38;97337.91;;;1.49;100.00
11038;BME280;5572;49.540;11.932;2023-02-16T09:28:06;97332.41;;;1.44;100.00
11038;BME280;5572;49.540;11.932;2023-02-16T09:30:36;97336.16;;;1.30;100.00
11038;BME280;5572;49.540;11.932;2023-02-16T09:33:04;97358.81;;;1.76;100.00
11038;BME280;5572;49.540;11.932;2023-02-16T09:35:31;97353.75;;;1.99;100.00
11038;BME280;5572;49.540;11.932;2023-02-16T09:37:58;97333.59;;;1.48;100.00
11038;BME280;5572;49.540;11.932;2023-02-16T09:40:25;97343.56;;;1.90;100.00
11038;BME280;5572;49.540;11.932;2023-02-16T09:43:02;97359.69;;;2.50;100.00
11038;BME280;5572;49.540;11.932;2023-02-16T09:45:38;97338.66;;;2.60;100.00
11038;BME280;5572;49.540;11.932;2023-02-16T09:48:20;97350.28;;;2.48;100.00
11038;BME280;5572;49.540;11.932;2023-02-16T09:50:51;97358.84;;;2.25;100.00
11038;BME280;5572;49.540;11.932;2023-02-16T09:53:34;97352.97;;;2.65;100.00
11038;BME280;5572;49.540;11.932;2023-02-16T09:56:11;97373.56;;;2.58;100.00
11038;BME280;5572;49.540;11.932;2023-02-16T09:58:48;97348.81;;;2.69;100.00
11038;BME280;5572;49.540;11.932;2023-02-16T10:01:25;97351.97;;;2.42;100.00
11038;BME280;5572;49.540;11.932;2023-02-16T10:04:10;97347.44;;;2.43;100.00
11038;BME280;5572;49.540;11.932;2023-02-16T10:06:52;97355.81;;;2.46;100.00
11038;BME280;5572;49.540;11.932;2023-02-16T10:09:25;97323.91;;;2.57;100.00
11038;BME280;5572;49.540;11.932;2023-02-16T10:11:57;97330.03;;;2.40;100.00
11038;BME280;5572;49.540;11.932;2023-02-16T10:14:32;97321.75;;;2.24;100.00
11038;BME280;5572;49.540;11.932;2023-02-16T10:17:14;97329.00;;;2.77;100.00
11038;BME280;5572;49.540;11.932;2023-02-16T10:19:46;97308.56;;;2.53;100.00
11038;BME280;5572;49.540;11.932;2023-02-16T10:22:19;97336.16;;;3.01;100.00
11038;BME280;5572;49.540;11.932;2023-02-16T10:24:56;97301.06;;;3.85;100.00
11038;BME280;5572;49.540;11.932;2023-02-16T10:27:27;97318.25;;;4.30;100.00
11038;BME280;5572;49.540;11.932;2023-02-16T10:29:59;97300.94;;;5.06;100.00
11038;BME280;5572;49.540;11.932;2023-02-16T10:32:27;97313.97;;;5.14;100.00
11038;BME280;5572;49.540;11.932;2023-02-16T10:35:05;97260.97;;;5.05;100.00
11038;BME280;5572;49.540;11.932;2023-02-16T10:37:42;97274.25;;;4.15;100.00
11038;BME280;5572;49.540;11.932;2023-02-16T10:40:21;97255.66;;;4.31;100.00
11038;BME280;5572;49.540;11.932;2023-02-16T10:42:56;97270.56;;;4.38;100.00
11038;BME280;5572;49.540;11.932;2023-02-16T10:45:29;97225.00;;;4.73;100.00
11038;BME280;5572;49.540;11.932;2023-02-16T10:47:57;97235.66;;;4.22;100.00
11038;BME280;5572;49.540;11.932;2023-02-16T10:50:26;97217.03;;;4.27;100.00
11038;BME280;5572;49.540;11.932;2023-02-16T10:52:57;97209.03;;;3.00;100.00
11038;BME280;5572;49.540;11.932;2023-02-16T10:55:39;97184.00;;;3.87;100.00
11038;BME280;5572;49.540;11.932;2023-02-16T10:58:18;97185.44;;;2.97;100.00
11038;BME280;5572;49.540;11.932;2023-02-16T11:01:08;97169.03;;;2.35;100.00
11038;BME280;5572;49.540;11.932;2023-02-16T11:03:50;97182.50;;;2.57;100.00
11038;BME280;5572;49.540;11.932;2023-02-16T11:06:21;97158.56;;;3.10;100.00
11038;BME280;5572;49.540;11.932;2023-02-16T11:08:51;97179.91;;;2.51;100.00
11038;BME280;5572;49.540;11.932;2023-02-16T11:11:23;97164.13;;;2.79;100.00
11038;BME280;5572;49.540;11.932;2023-02-16T11:13:57;97152.63;;;3.08;100.00
11038;BME280;5572;49.540;11.932;2023-02-16T11:16:27;97154.91;;;3.34;100.00
11038;BME280;5572;49.540;11.932;2023-02-16T11:18:58;97138.81;;;2.70;100.00
11038;BME280;5572;49.540;11.932;2023-02-16T11:21:46;97137.66;;;2.48;100.00
11038;BME280;5572;49.540;11.932;2023-02-16T11:24:27;97168.44;;;3.61;100.00
11038;BME280;5572;49.540;11.932;2023-02-16T11:27:03;97145.81;;;4.26;100.00
11038;BME280;5572;49.540;11.932;2023-02-16T11:29:36;97126.56;;;4.13;100.00
11038;BME280;5572;49.540;11.932;2023-02-16T11:32:12;97125.34;;;4.31;100.00
11038;BME280;5572;49.540;11.932;2023-02-16T11:34:44;97142.03;;;3.65;100.00
11038;BME280;5572;49.540;11.932;2023-02-16T11:37:15;97158.78;;;3.49;100.00
11038;BME280;5572;49.540;11.932;2023-02-16T11:39:49;97138.91;;;4.02;100.00
11038;BME280;5572;49.540;11.932;2023-02-16T11:42:20;97158.81;;;3.83;100.00
11038;BME280;5572;49.540;11.932;2023-02-16T11:44:51;97129.84;;;3.46;100.00
11038;BME280;5572;49.540;11.932;2023-02-16T11:47:28;97141.66;;;3.38;100.00
11038;BME280;5572;49.540;11.932;2023-02-16T11:50:23;97163.19;;;3.03;100.00
11038;BME280;5572;49.540;11.932;2023-02-16T11:52:55;97152.63;;;3.94;100.00
11038;BME280;5572;49.540;11.932;2023-02-16T11:55:26;97110.00;;;4.27;100.00
11038;BME280;5572;49.540;11.932;2023-02-16T11:57:53;97131.88;;;4.91;100.00
11038;BME280;5572;49.540;11.932;2023-02-16T12:00:22;97143.84;;;5.00;100.00
11038;BME280;5572;49.540;11.932;2023-02-16T12:03:11;97170.56;;;3.30;100.00
11038;BME280;5572;49.540;11.932;2023-02-16T12:05:53;97216.34;;;4.09;100.00
11038;BME280;5572;49.540;11.932;2023-02-16T12:08:44;97161.31;;;4.13;100.00
11038;BME280;5572;49.540;11.932;2023-02-16T12:11:21;97195.25;;;3.43;100.00
11038;BME280;5572;49.540;11.932;2023-02-16T12:14:01;97161.81;;;3.98;100.00
11038;BME280;5572;49.540;11.932;2023-02-16T12:16:35;97208.75;;;3.71;100.00
11038;BME280;5572;49.540;11.932;2023-02-16T12:19:17;97193.44;;;4.01;100.00
11038;BME280;5572;49.540;11.932;2023-02-16T12:21:52;97196.69;;;4.15;100.00
11038;BME280;5572;49.540;11.932;2023-02-16T12:24:33;97183.66;;;3.72;100.00
11038;BME280;5572;49.540;11.932;2023-02-16T12:27:03;97203.19;;;3.21;100.00
11038;BME280;5572;49.540;11.932;2023-02-16T12:29:38;97212.13;;;3.78;100.00
11038;BME280;5572;49.540;11.932;2023-02-16T12:32:36;97175.59;;;4.29;100.00
11038;BME280;5572;49.540;11.932;2023-02-16T12:35:21;97177.34;;;4.75;100.00
11038;BME280;5572;49.540;11.932;2023-02-16T12:37:59;97183.31;;;4.03;100.00
11038;BME280;5572;49.540;11.932;2023-02-16T12:40:45;97177.59;;;3.65;100.00
11038;BME280;5572;49.540;11.932;2023-02-16T12:43:28;97176.56;;;3.66;100.00
11038;BME280;5572;49.540;11.932;2023-02-16T12:46:00;97152.97;;;3.86;100.00
11038;BME280;5572;49.540;11.932;2023-02-16T12:48:47;97166.38;;;5.15;100.00
11038;BME280;5572;49.540;11.932;2023-02-16T12:51:20;97161.09;;;4.65;100.00
11038;BME280;5572;49.540;11.932;2023-02-16T12:53:53;97170.16;;;4.02;100.00
11038;BME280;5572;49.540;11.932;2023-02-16T12:56:26;97180.13;;;4.52;100.00
11038;BME280;5572;49.540;11.932;2023-02-16T12:59:05;97152.44;;;4.46;100.00
11038;BME280;5572;49.540;11.932;2023-02-16T13:01:34;97185.28;;;3.85;100.00
11038;BME280;5572;49.540;11.932;2023-02-16T13:04:06;97197.34;;;4.44;100.00
11038;BME280;5572;49.540;11.932;2023-02-16T13:06:44;97179.59;;;4.16;100.00
11038;BME280;5572;49.540;11.932;2023-02-16T13:09:21;97209.00;;;4.27;100.00
11038;BME280;5572;49.540;11.932;2023-02-16T13:11:54;97205.41;;;4.22;100.00
11038;BME280;5572;49.540;11.932;2023-02-16T13:14:26;97206.25;;;4.73;100.00
11038;BME280;5572;49.540;11.932;2023-02-16T13:16:55;97192.63;;;4.12;100.00
11038;BME280;5572;49.540;11.932;2023-02-16T13:19:29;97223.06;;;3.77;100.00
11038;BME280;5572;49.540;11.932;2023-02-16T13:25:05;97203.50;;;4.56;100.00
11038;BME280;5572;49.540;11.932;2023-02-16T13:27:53;97219.25;;;4.07;100.00
11038;BME280;5572;49.540;11.932;2023-02-16T13:30:49;97216.31;;;3.97;100.00
11038;BME280;5572;49.540;11.932;2023-02-16T13:33:41;97211.56;;;4.22;100.00
11038;BME280;5572;49.540;11.932;2023-02-16T13:36:26;97185.75;;;4.67;100.00
11038;BME280;5572;49.540;11.932;2023-02-16T13:42:23;97204.84;;;4.70;100.00
11038;BME280;5572;49.540;11.932;2023-02-16T13:44:57;97198.69;;;4.70;100.00
11038;BME280;5572;49.540;11.932;2023-02-16T13:47:26;97206.56;;;4.25;100.00
11038;BME280;5572;49.540;11.932;2023-02-16T13:49:56;97202.75;;;3.99;100.00
11038;BME280;5572;49.540;11.932;2023-02-16T13:52:29;97214.38;;;4.16;100.00
11038;BME280;5572;49.540;11.932;2023-02-16T13:54:59;97196.06;;;4.58;100.00
11038;BME280;5572;49.540;11.932;2023-02-16T13:57:54;97222.75;;;4.08;100.00
11038;BME280;5572;49.540;11.932;2023-02-16T14:00:31;97209.25;;;3.91;100.00
11038;BME280;5572;49.540;11.932;2023-02-16T14:03:33;97229.38;;;4.17;100.00
11038;BME280;5572;49.540;11.932;2023-02-16T14:06:36;97208.78;;;4.28;100.00
11038;BME280;5572;49.540;11.932;2023-02-16T14:17:24;97200.59;;;4.46;100.00
11038;BME280;5572;49.540;11.932;2023-02-16T14:19:53;97201.69;;;4.11;100.00
11038;BME280;5572;49.540;11.932;2023-02-16T14:22:23;97205.72;;;4.25;100.00
11038;BME280;5572;49.540;11.932;2023-02-16T14:24:54;97186.59;;;4.56;100.00
11038;BME280;5572;49.540;11.932;2023-02-16T14:27:43;97192.72;;;4.79;100.00
11038;BME280;5572;49.540;11.932;2023-02-16T14:30:22;97185.97;;;4.77;100.00
11038;BME280;5572;49.540;11.932;2023-02-16T14:32:55;97189.41;;;4.61;100.00
11038;BME280;5572;49.540;11.932;2023-02-16T14:35:28;97183.28;;;4.37;100.00
11038;BME280;5572;49.540;11.932;2023-02-16T14:37:57;97187.59;;;4.38;100.00
11038;BME280;5572;49.540;11.932;2023-02-16T14:40:44;97192.84;;;4.22;100.00
11038;BME280;5572;49.540;11.932;2023-02-16T14:43:25;97209.72;;;4.11;100.00
11038;BME280;5572;49.540;11.932;2023-02-16T14:49:28;97219.00;;;4.20;100.00
11038;BME280;5572;49.540;11.932;2023-02-16T14:52:43;97211.44;;;3.83;100.00
11038;BME280;5572;49.540;11.932;2023-02-16T14:55:42;97215.41;;;3.92;100.00
11038;BME280;5572;49.540;11.932;2023-02-16T14:58:24;97209.34;;;3.96;100.00
11038;BME280;5572;49.540;11.932;2023-02-16T15:00:55;97230.41;;;3.81;100.00
11038;BME280;5572;49.540;11.932;2023-02-16T15:03:38;97224.34;;;3.86;100.00
11038;BME280;5572;49.540;11.932;2023-02-16T15:06:06;97233.31;;;3.91;100.00
11038;BME280;5572;49.540;11.932;2023-02-16T15:08:36;97210.63;;;3.94;100.00
11038;BME280;5572;49.540;11.932;2023-02-16T15:11:13;97210.75;;;3.76;100.00
11038;BME280;5572;49.540;11.932;2023-02-16T15:13:40;97229.41;;;3.64;100.00
11038;BME280;5572;49.540;11.932;2023-02-16T15:16:09;97229.38;;;3.41;100.00
11038;BME280;5572;49.540;11.932;2023-02-16T15:18:42;97223.56;;;3.44;100.00
11038;BME280;5572;49.540;11.932;2023-02-16T15:21:16;97219.81;;;3.34;100.00
11038;BME280;5572;49.540;11.932;2023-02-16T15:23:49;97228.91;;;3.44;100.00
11038;BME280;5572;49.540;11.932;2023-02-16T15:26:18;97223.97;;;3.30;100.00
11038;BME280;5572;49.540;11.932;2023-02-16T15:28:51;97215.94;;;3.19;100.00
11038;BME280;5572;49.540;11.932;2023-02-16T15:31:19;97223.31;;;3.05;100.00
11038;BME280;5572;49.540;11.932;2023-02-16T15:33:53;97218.91;;;2.99;100.00
11038;BME280;5572;49.540;11.932;2023-02-16T15:36:23;97225.56;;;2.90;100.00
11038;BME280;5572;49.540;11.932;2023-02-16T15:38:57;97242.19;;;2.92;100.00
11038;BME280;5572;49.540;11.932;2023-02-16T15:41:25;97229.38;;;2.65;100.00
11038;BME280;5572;49.540;11.932;2023-02-16T15:43:55;97219.03;;;2.39;100.00
11038;BME280;5572;49.540;11.932;2023-02-16T15:46:24;97255.78;;;2.55;100.00
11038;BME280;5572;49.540;11.932;2023-02-16T15:48:53;97259.94;;;2.51;100.00
11038;BME280;5572;49.540;11.932;2023-02-16T15:51:25;97278.25;;;2.48;100.00